sensor_id;sensor_type;location;lat;lon;timestamp;P1;durP1;ratioP1;P2;durP2;ratioP2
22778;SDS011;11556;51.194;3.800;2022-07-17T00:02:04;5.28;;;1.90;;
22778;SDS011;11556;51.194;3.800;2022-07-17T00:04:30;3.15;;;2.20;;
22778;SDS011;11556;51.194;3.800;2022-07-17T00:06:55;3.33;;;1.90;;
22778;SDS011;11556;51.194;3.800;2022-07-17T00:09:21;4.63;;;1.88;;
22778;SDS011;11556;51.194;3.800;2022-07-17T00:11:47;5.43;;;2.05;;
22778;SDS011;11556;51.194;3.800;2022-07-17T00:14:12;4.40;;;2.10;;
22778;SDS011;11556;51.194;3.800;2022-07-17T00:16:38;5.43;;;1.90;;
22778;SDS011;11556;51.194;3.800;2022-07-17T00:19:03;4.75;;;2.20;;
22778;SDS011;11556;51.194;3.800;2022-07-17T00:21:29;4.95;;;2.20;;
22778;SDS011;11556;51.194;3.800;2022-07-17T00:23:55;6.85;;;2.15;;
22778;SDS011;11556;51.194;3.800;2022-07-17T00:26:20;5.18;;;2.20;;
22778;SDS011;11556;51.194;3.800;2022-07-17T00:28:46;6.85;;;2.45;;
22778;SDS011;11556;51.194;3.800;2022-07-17T00:31:11;3.90;;;2.33;;
22778;SDS011;11556;51.194;3.800;2022-07-17T00:33:37;5.78;;;2.60;;
22778;SDS011;11556;51.194;3.800;2022-07-17T00:36:03;3.25;;;2.30;;
22778;SDS011;11556;51.194;3.800;2022-07-17T00:38:29;5.75;;;2.47;;
22778;SDS011;11556;51.194;3.800;2022-07-17T00:40:55;8.13;;;2.45;;
22778;SDS011;11556;51.194;3.800;2022-07-17T00:43:22;6.03;;;2.45;;
22778;SDS011;11556;51.194;3.800;2022-07-17T00:45:58;4.45;;;2.42;;
22778;SDS011;11556;51.194;3.800;2022-07-17T00:48:25;9.05;;;2.90;;
22778;SDS011;11556;51.194;3.800;2022-07-17T00:50:50;5.45;;;2.47;;
22778;SDS011;11556;51.194;3.800;2022-07-17T00:53:17;6.30;;;2.42;;
22778;SDS011;11556;51.194;3.800;2022-07-17T00:55:43;3.72;;;2.30;;
22778;SDS011;11556;51.194;3.800;2022-07-17T00:58:15;2.70;;;2.20;;
22778;SDS011;11556;51.194;3.800;2022-07-17T01:00:48;4.55;;;2.60;;
22778;SDS011;11556;51.194;3.800;2022-07-17T01:03:14;5.03;;;2.50;;
22778;SDS011;11556;51.194;3.800;2022-07-17T01:05:41;6.00;;;2.53;;
22778;SDS011;11556;51.194;3.800;2022-07-17T01:08:07;4.60;;;2.45;;
22778;SDS011;11556;51.194;3.800;2022-07-17T01:10:33;6.30;;;2.72;;
22778;SDS011;11556;51.194;3.800;2022-07-17T01:12:58;2.97;;;2.40;;
22778;SDS011;11556;51.194;3.800;2022-07-17T01:15:24;4.95;;;2.95;;
22778;SDS011;11556;51.194;3.800;2022-07-17T01:17:50;6.75;;;2.80;;
22778;SDS011;11556;51.194;3.800;2022-07-17T01:20:16;4.47;;;2.67;;
22778;SDS011;11556;51.194;3.800;2022-07-17T01:22:43;8.02;;;2.90;;
22778;SDS011;11556;51.194;3.800;2022-07-17T01:25:14;4.15;;;2.40;;
22778;SDS011;11556;51.194;3.800;2022-07-17T01:27:41;6.13;;;2.63;;
22778;SDS011;11556;51.194;3.800;2022-07-17T01:30:07;7.20;;;2.88;;
22778;SDS011;11556;51.194;3.800;2022-07-17T01:32:34;5.50;;;2.33;;
22778;SDS011;11556;51.194;3.800;2022-07-17T01:35:02;4.68;;;2.60;;
22778;SDS011;11556;51.194;3.800;2022-07-17T01:37:29;4.88;;;2.58;;
22778;SDS011;11556;51.194;3.800;2022-07-17T01:39:54;4.72;;;2.60;;
22778;SDS011;11556;51.194;3.800;2022-07-17T01:42:21;6.95;;;3.00;;
22778;SDS011;11556;51.194;3.800;2022-07-17T01:44:48;5.00;;;2.50;;
22778;SDS011;11556;51.194;3.800;2022-07-17T01:47:14;8.00;;;2.67;;
22778;SDS011;11556;51.194;3.800;2022-07-17T01:49:47;8.27;;;2.95;;
22778;SDS011;11556;51.194;3.800;2022-07-17T01:52:14;5.28;;;2.88;;
22778;SDS011;11556;51.194;3.800;2022-07-17T01:54:40;2.95;;;2.30;;
22778;SDS011;11556;51.194;3.800;2022-07-17T01:57:06;6.60;;;2.67;;
22778;SDS011;11556;51.194;3.800;2022-07-17T01:59:33;7.15;;;2.50;;
22778;SDS011;11556;51.194;3.800;2022-07-17T02:01:59;7.53;;;2.55;;
22778;SDS011;11556;51.194;3.800;2022-07-17T02:04:24;7.72;;;2.65;;
22778;SDS011;11556;51.194;3.800;2022-07-17T02:06:52;4.40;;;2.47;;
22778;SDS011;11556;51.194;3.800;2022-07-17T02:09:19;6.50;;;3.30;;
22778;SDS011;11556;51.194;3.800;2022-07-17T02:11:45;7.30;;;2.83;;
22778;SDS011;11556;51.194;3.800;2022-07-17T02:14:11;6.75;;;2.80;;
22778;SDS011;11556;51.194;3.800;2022-07-17T02:16:36;5.35;;;2.60;;
22778;SDS011;11556;51.194;3.800;2022-07-17T02:19:02;5.55;;;2.67;;
22778;SDS011;11556;51.194;3.800;2022-07-17T02:21:27;5.05;;;2.78;;
22778;SDS011;11556;51.194;3.800;2022-07-17T02:23:53;4.10;;;2.50;;
22778;SDS011;11556;51.194;3.800;2022-07-17T02:26:18;5.15;;;2.55;;
22778;SDS011;11556;51.194;3.800;2022-07-17T02:28:44;6.47;;;2.80;;
22778;SDS011;11556;51.194;3.800;2022-07-17T02:31:10;6.28;;;2.78;;
22778;SDS011;11556;51.194;3.800;2022-07-17T02:33:36;6.72;;;2.88;;
22778;SDS011;11556;51.194;3.800;2022-07-17T02:36:01;5.07;;;2.47;;
22778;SDS011;11556;51.194;3.800;2022-07-17T02:38:27;10.60;;;2.83;;
22778;SDS011;11556;51.194;3.800;2022-07-17T02:40:53;7.55;;;2.70;;
22778;SDS011;11556;51.194;3.800;2022-07-17T02:43:18;7.97;;;2.80;;
22778;SDS011;11556;51.194;3.800;2022-07-17T02:45:44;6.80;;;2.65;;
22778;SDS011;11556;51.194;3.800;2022-07-17T02:48:10;7.65;;;3.00;;
22778;SDS011;11556;51.194;3.800;2022-07-17T02:50:35;9.95;;;3.20;;
22778;SDS011;11556;51.194;3.800;2022-07-17T02:53:01;7.53;;;2.83;;
22778;SDS011;11556;51.194;3.800;2022-07-17T02:55:27;5.35;;;2.67;;
22778;SDS011;11556;51.194;3.800;2022-07-17T02:57:53;6.82;;;3.30;;
22778;SDS011;11556;51.194;3.800;2022-07-17T03:00:18;5.68;;;3.10;;
22778;SDS011;11556;51.194;3.800;2022-07-17T03:02:45;9.23;;;3.40;;
22778;SDS011;11556;51.194;3.800;2022-07-17T03:05:12;11.38;;;3.55;;
22778;SDS011;11556;51.194;3.800;2022-07-17T03:07:39;13.30;;;3.15;;
22778;SDS011;11556;51.194;3.800;2022-07-17T03:10:05;7.43;;;3.60;;
22778;SDS011;11556;51.194;3.800;2022-07-17T03:12:32;7.72;;;3.65;;
22778;SDS011;11556;51.194;3.800;2022-07-17T03:14:57;7.18;;;3.63;;
22778;SDS011;11556;51.194;3.800;2022-07-17T03:17:23;7.05;;;3.50;;
22778;SDS011;11556;51.194;3.800;2022-07-17T03:19:49;9.18;;;3.50;;
22778;SDS011;11556;51.194;3.800;2022-07-17T03:22:14;7.80;;;3.78;;
22778;SDS011;11556;51.194;3.800;2022-07-17T03:24:41;8.65;;;3.55;;
22778;SDS011;11556;51.194;3.800;2022-07-17T03:27:06;8.40;;;3.95;;
22778;SDS011;11556;51.194;3.800;2022-07-17T03:29:32;7.75;;;3.70;;
22778;SDS011;11556;51.194;3.800;2022-07-17T03:31:57;8.20;;;4.05;;
22778;SDS011;11556;51.194;3.800;2022-07-17T03:34:23;7.30;;;3.65;;
22778;SDS011;11556;51.194;3.800;2022-07-17T03:36:49;6.25;;;3.15;;
22778;SDS011;11556;51.194;3.800;2022-07-17T03:39:15;8.57;;;3.75;;
22778;SDS011;11556;51.194;3.800;2022-07-17T03:41:41;7.68;;;3.53;;
22778;SDS011;11556;51.194;3.800;2022-07-17T03:44:06;10.57;;;3.63;;
22778;SDS011;11556;51.194;3.800;2022-07-17T03:46:32;8.10;;;3.83;;
22778;SDS011;11556;51.194;3.800;2022-07-17T03:48:58;6.05;;;3.63;;
22778;SDS011;11556;51.194;3.800;2022-07-17T03:51:23;7.60;;;4.10;;
22778;SDS011;11556;51.194;3.800;2022-07-17T03:53:49;7.15;;;3.90;;
22778;SDS011;11556;51.194;3.800;2022-07-17T03:56:15;8.55;;;4.45;;
22778;SDS011;11556;51.194;3.800;2022-07-17T03:58:40;10.07;;;5.55;;
22778;SDS011;11556;51.194;3.800;2022-07-17T04:01:06;6.00;;;3.85;;
22778;SDS011;11556;51.194;3.800;2022-07-17T04:03:31;7.93;;;3.63;;
22778;SDS011;11556;51.194;3.800;2022-07-17T04:05:57;14.50;;;3.63;;
22778;SDS011;11556;51.194;3.800;2022-07-17T04:08:23;10.50;;;4.20;;
22778;SDS011;11556;51.194;3.800;2022-07-17T04:10:48;10.68;;;3.80;;
22778;SDS011;11556;51.194;3.800;2022-07-17T04:13:14;12.82;;;4.10;;
22778;SDS011;11556;51.194;3.800;2022-07-17T04:15:40;10.50;;;3.42;;
22778;SDS011;11556;51.194;3.800;2022-07-17T04:18:14;7.72;;;3.25;;
22778;SDS011;11556;51.194;3.800;2022-07-17T04:20:44;9.43;;;3.40;;
22778;SDS011;11556;51.194;3.800;2022-07-17T04:23:10;8.25;;;3.38;;
22778;SDS011;11556;51.194;3.800;2022-07-17T04:25:36;8.48;;;3.20;;
22778;SDS011;11556;51.194;3.800;2022-07-17T04:28:01;10.32;;;2.85;;
22778;SDS011;11556;51.194;3.800;2022-07-17T04:30:27;7.40;;;3.28;;
22778;SDS011;11556;51.194;3.800;2022-07-17T04:32:53;6.28;;;3.17;;
22778;SDS011;11556;51.194;3.800;2022-07-17T04:35:18;8.82;;;3.05;;
22778;SDS011;11556;51.194;3.800;2022-07-17T04:37:44;7.05;;;2.90;;
22778;SDS011;11556;51.194;3.800;2022-07-17T04:40:10;8.82;;;3.33;;
22778;SDS011;11556;51.194;3.800;2022-07-17T04:42:36;8.20;;;3.55;;
22778;SDS011;11556;51.194;3.800;2022-07-17T04:45:02;11.30;;;4.05;;
22778;SDS011;11556;51.194;3.800;2022-07-17T04:47:29;8.32;;;3.72;;
22778;SDS011;11556;51.194;3.800;2022-07-17T04:49:54;9.00;;;3.83;;
22778;SDS011;11556;51.194;3.800;2022-07-17T04:52:20;6.38;;;3.53;;
22778;SDS011;11556;51.194;3.800;2022-07-17T04:54:45;10.18;;;3.72;;
22778;SDS011;11556;51.194;3.800;2022-07-17T04:57:11;9.43;;;3.97;;
22778;SDS011;11556;51.194;3.800;2022-07-17T04:59:37;7.20;;;3.50;;
22778;SDS011;11556;51.194;3.800;2022-07-17T05:02:02;5.30;;;3.40;;
22778;SDS011;11556;51.194;3.800;2022-07-17T05:04:28;6.93;;;3.55;;
22778;SDS011;11556;51.194;3.800;2022-07-17T05:06:54;7.30;;;3.50;;
22778;SDS011;11556;51.194;3.800;2022-07-17T05:09:20;11.18;;;3.50;;
22778;SDS011;11556;51.194;3.800;2022-07-17T05:11:45;10.65;;;3.20;;
22778;SDS011;11556;51.194;3.800;2022-07-17T05:14:11;5.93;;;3.00;;
22778;SDS011;11556;51.194;3.800;2022-07-17T05:16:36;6.60;;;2.72;;
22778;SDS011;11556;51.194;3.800;2022-07-17T05:19:02;5.10;;;2.92;;
22778;SDS011;11556;51.194;3.800;2022-07-17T05:21:28;7.32;;;3.00;;
22778;SDS011;11556;51.194;3.800;2022-07-17T05:23:53;8.98;;;3.20;;
22778;SDS011;11556;51.194;3.800;2022-07-17T05:26:19;8.45;;;3.30;;
22778;SDS011;11556;51.194;3.800;2022-07-17T05:28:44;8.48;;;3.33;;
22778;SDS011;11556;51.194;3.800;2022-07-17T05:31:10;9.10;;;3.30;;
22778;SDS011;11556;51.194;3.800;2022-07-17T05:33:36;6.20;;;3.10;;
22778;SDS011;11556;51.194;3.800;2022-07-17T05:36:01;4.68;;;2.75;;
22778;SDS011;11556;51.194;3.800;2022-07-17T05:38:27;6.53;;;2.97;;
22778;SDS011;11556;51.194;3.800;2022-07-17T05:40:53;7.35;;;3.10;;
22778;SDS011;11556;51.194;3.800;2022-07-17T05:43:18;6.28;;;2.88;;
22778;SDS011;11556;51.194;3.800;2022-07-17T05:45:44;5.63;;;2.30;;
22778;SDS011;11556;51.194;3.800;2022-07-17T05:48:09;5.97;;;2.70;;
22778;SDS011;11556;51.194;3.800;2022-07-17T05:50:35;5.63;;;2.55;;
22778;SDS011;11556;51.194;3.800;2022-07-17T05:53:01;9.43;;;3.00;;
22778;SDS011;11556;51.194;3.800;2022-07-17T05:55:26;9.40;;;2.88;;
22778;SDS011;11556;51.194;3.800;2022-07-17T05:57:52;7.18;;;2.88;;
22778;SDS011;11556;51.194;3.800;2022-07-17T06:00:18;8.50;;;2.90;;
22778;SDS011;11556;51.194;3.800;2022-07-17T06:02:44;6.68;;;2.42;;
22778;SDS011;11556;51.194;3.800;2022-07-17T06:05:09;7.07;;;2.75;;
22778;SDS011;11556;51.194;3.800;2022-07-17T06:07:36;5.18;;;2.50;;
22778;SDS011;11556;51.194;3.800;2022-07-17T06:10:02;4.28;;;2.38;;
22778;SDS011;11556;51.194;3.800;2022-07-17T06:12:31;5.97;;;2.35;;
22778;SDS011;11556;51.194;3.800;2022-07-17T06:14:57;6.10;;;2.17;;
22778;SDS011;11556;51.194;3.800;2022-07-17T06:17:22;6.07;;;1.80;;
22778;SDS011;11556;51.194;3.800;2022-07-17T06:19:48;4.07;;;1.73;;
22778;SDS011;11556;51.194;3.800;2022-07-17T06:22:17;7.63;;;1.83;;
22778;SDS011;11556;51.194;3.800;2022-07-17T06:24:44;5.53;;;2.00;;
22778;SDS011;11556;51.194;3.800;2022-07-17T06:27:10;6.80;;;1.83;;
22778;SDS011;11556;51.194;3.800;2022-07-17T06:29:36;6.55;;;1.70;;
22778;SDS011;11556;51.194;3.800;2022-07-17T06:32:01;5.07;;;1.50;;
22778;SDS011;11556;51.194;3.800;2022-07-17T06:34:27;4.28;;;1.50;;
22778;SDS011;11556;51.194;3.800;2022-07-17T06:36:52;7.50;;;1.77;;
22778;SDS011;11556;51.194;3.800;2022-07-17T06:39:18;11.68;;;1.80;;
22778;SDS011;11556;51.194;3.800;2022-07-17T06:41:44;3.60;;;1.25;;
22778;SDS011;11556;51.194;3.800;2022-07-17T06:44:09;3.72;;;1.67;;
22778;SDS011;11556;51.194;3.800;2022-07-17T06:46:35;6.55;;;1.58;;
22778;SDS011;11556;51.194;3.800;2022-07-17T06:49:00;3.75;;;1.60;;
22778;SDS011;11556;51.194;3.800;2022-07-17T06:51:26;4.72;;;1.45;;
22778;SDS011;11556;51.194;3.800;2022-07-17T06:53:52;5.85;;;1.40;;
22778;SDS011;11556;51.194;3.800;2022-07-17T06:56:17;3.83;;;1.33;;
22778;SDS011;11556;51.194;3.800;2022-07-17T06:58:43;5.53;;;1.35;;
22778;SDS011;11556;51.194;3.800;2022-07-17T07:01:08;4.45;;;1.55;;
22778;SDS011;11556;51.194;3.800;2022-07-17T07:03:34;3.28;;;1.30;;
22778;SDS011;11556;51.194;3.800;2022-07-17T07:05:59;4.90;;;1.40;;
22778;SDS011;11556;51.194;3.800;2022-07-17T07:08:26;6.72;;;1.40;;
22778;SDS011;11556;51.194;3.800;2022-07-17T07:10:51;7.13;;;1.20;;
22778;SDS011;11556;51.194;3.800;2022-07-17T07:13:17;7.47;;;1.27;;
22778;SDS011;11556;51.194;3.800;2022-07-17T07:15:42;7.05;;;1.30;;
22778;SDS011;11556;51.194;3.800;2022-07-17T07:18:08;6.13;;;1.48;;
22778;SDS011;11556;51.194;3.800;2022-07-17T07:20:34;7.45;;;1.48;;
22778;SDS011;11556;51.194;3.800;2022-07-17T07:23:00;5.18;;;1.27;;
22778;SDS011;11556;51.194;3.800;2022-07-17T07:25:25;2.97;;;1.40;;
22778;SDS011;11556;51.194;3.800;2022-07-17T07:27:51;6.50;;;1.45;;
22778;SDS011;11556;51.194;3.800;2022-07-17T07:30:17;5.15;;;1.10;;
22778;SDS011;11556;51.194;3.800;2022-07-17T07:32:42;7.53;;;2.50;;
22778;SDS011;11556;51.194;3.800;2022-07-17T07:35:08;6.57;;;1.13;;
22778;SDS011;11556;51.194;3.800;2022-07-17T07:37:34;5.55;;;1.17;;
22778;SDS011;11556;51.194;3.800;2022-07-17T07:40:00;5.28;;;1.10;;
22778;SDS011;11556;51.194;3.800;2022-07-17T07:42:27;3.35;;;0.98;;
22778;SDS011;11556;51.194;3.800;2022-07-17T07:44:53;6.53;;;1.40;;
22778;SDS011;11556;51.194;3.800;2022-07-17T07:47:18;6.18;;;1.25;;
22778;SDS011;11556;51.194;3.800;2022-07-17T07:49:44;3.90;;;1.10;;
22778;SDS011;11556;51.194;3.800;2022-07-17T07:52:10;6.18;;;1.23;;
22778;SDS011;11556;51.194;3.800;2022-07-17T07:54:36;6.18;;;1.05;;
22778;SDS011;11556;51.194;3.800;2022-07-17T07:57:01;5.97;;;1.40;;
22778;SDS011;11556;51.194;3.800;2022-07-17T07:59:28;7.25;;;1.50;;
22778;SDS011;11556;51.194;3.800;2022-07-17T08:01:57;3.13;;;1.17;;
22778;SDS011;11556;51.194;3.800;2022-07-17T08:04:23;6.07;;;1.48;;
22778;SDS011;11556;51.194;3.800;2022-07-17T08:06:49;3.83;;;1.17;;
22778;SDS011;11556;51.194;3.800;2022-07-17T08:09:14;4.38;;;0.93;;
22778;SDS011;11556;51.194;3.800;2022-07-17T08:11:40;5.13;;;1.10;;
22778;SDS011;11556;51.194;3.800;2022-07-17T08:14:06;3.72;;;1.10;;
22778;SDS011;11556;51.194;3.800;2022-07-17T08:16:31;5.07;;;1.50;;
22778;SDS011;11556;51.194;3.800;2022-07-17T08:18:57;4.00;;;1.13;;
22778;SDS011;11556;51.194;3.800;2022-07-17T08:21:22;4.40;;;1.20;;
22778;SDS011;11556;51.194;3.800;2022-07-17T08:23:48;3.95;;;1.20;;
22778;SDS011;11556;51.194;3.800;2022-07-17T08:26:14;4.60;;;1.30;;
22778;SDS011;11556;51.194;3.800;2022-07-17T08:28:40;7.10;;;1.40;;
22778;SDS011;11556;51.194;3.800;2022-07-17T08:31:05;3.70;;;1.15;;
22778;SDS011;11556;51.194;3.800;2022-07-17T08:33:31;5.47;;;1.17;;
22778;SDS011;11556;51.194;3.800;2022-07-17T08:35:58;2.97;;;1.13;;
22778;SDS011;11556;51.194;3.800;2022-07-17T08:38:23;3.83;;;1.30;;
22778;SDS011;11556;51.194;3.800;2022-07-17T08:40:49;3.22;;;1.15;;
22778;SDS011;11556;51.194;3.800;2022-07-17T08:43:18;3.33;;;0.95;;
22778;SDS011;11556;51.194;3.800;2022-07-17T08:45:43;2.75;;;1.02;;
22778;SDS011;11556;51.194;3.800;2022-07-17T08:48:11;2.97;;;0.85;;
22778;SDS011;11556;51.194;3.800;2022-07-17T08:50:38;3.83;;;1.00;;
22778;SDS011;11556;51.194;3.800;2022-07-17T08:53:05;4.55;;;1.20;;
22778;SDS011;11556;51.194;3.800;2022-07-17T08:55:31;5.07;;;1.50;;
22778;SDS011;11556;51.194;3.800;2022-07-17T08:57:57;5.97;;;1.20;;
22778;SDS011;11556;51.194;3.800;2022-07-17T09:00:23;3.97;;;1.20;;
22778;SDS011;11556;51.194;3.800;2022-07-17T09:05:25;6.30;;;1.30;;
22778;SDS011;11556;51.194;3.800;2022-07-17T09:10:40;6.80;;;1.30;;
22778;SDS011;11556;51.194;3.800;2022-07-17T09:15:47;5.40;;;1.20;;
22778;SDS011;11556;51.194;3.800;2022-07-17T09:18:16;4.50;;;1.13;;
22778;SDS011;11556;51.194;3.800;2022-07-17T09:20:50;2.33;;;0.90;;
22778;SDS011;11556;51.194;3.800;2022-07-17T09:23:18;5.05;;;1.20;;
22778;SDS011;11556;51.194;3.800;2022-07-17T09:25:46;6.35;;;1.27;;
22778;SDS011;11556;51.194;3.800;2022-07-17T09:28:13;6.82;;;1.20;;
22778;SDS011;11556;51.194;3.800;2022-07-17T09:30:41;6.45;;;1.40;;
22778;SDS011;11556;51.194;3.800;2022-07-17T09:33:12;4.88;;;1.15;;
22778;SDS011;11556;51.194;3.800;2022-07-17T09:35:52;2.20;;;0.90;;
22778;SDS011;11556;51.194;3.800;2022-07-17T09:38:28;2.28;;;1.10;;
22778;SDS011;11556;51.194;3.800;2022-07-17T09:43:45;3.17;;;1.33;;
22778;SDS011;11556;51.194;3.800;2022-07-17T09:46:14;4.28;;;1.00;;
22778;SDS011;11556;51.194;3.800;2022-07-17T09:48:42;4.20;;;1.23;;
22778;SDS011;11556;51.194;3.800;2022-07-17T09:51:23;3.05;;;0.93;;
22778;SDS011;11556;51.194;3.800;2022-07-17T09:53:52;2.17;;;1.10;;
22778;SDS011;11556;51.194;3.800;2022-07-17T09:56:20;4.00;;;1.30;;
22778;SDS011;11556;51.194;3.800;2022-07-17T09:58:49;5.03;;;1.20;;
22778;SDS011;11556;51.194;3.800;2022-07-17T10:01:17;4.95;;;1.20;;
22778;SDS011;11556;51.194;3.800;2022-07-17T10:03:44;2.85;;;1.10;;
22778;SDS011;11556;51.194;3.800;2022-07-17T10:06:11;3.22;;;1.20;;
22778;SDS011;11556;51.194;3.800;2022-07-17T10:08:37;2.92;;;0.85;;
22778;SDS011;11556;51.194;3.800;2022-07-17T10:11:07;5.75;;;1.30;;
22778;SDS011;11556;51.194;3.800;2022-07-17T10:13:40;5.77;;;1.00;;
22778;SDS011;11556;51.194;3.800;2022-07-17T10:16:08;1.90;;;1.38;;
22778;SDS011;11556;51.194;3.800;2022-07-17T10:18:35;4.05;;;2.20;;
22778;SDS011;11556;51.194;3.800;2022-07-17T10:23:39;4.18;;;0.93;;
22778;SDS011;11556;51.194;3.800;2022-07-17T10:26:06;3.45;;;1.17;;
22778;SDS011;11556;51.194;3.800;2022-07-17T10:28:39;3.97;;;1.40;;
22778;SDS011;11556;51.194;3.800;2022-07-17T10:31:05;2.47;;;1.02;;
22778;SDS011;11556;51.194;3.800;2022-07-17T10:33:30;4.60;;;1.08;;
22778;SDS011;11556;51.194;3.800;2022-07-17T10:35:56;4.18;;;1.17;;
22778;SDS011;11556;51.194;3.800;2022-07-17T10:38:24;2.50;;;1.00;;
22778;SDS011;11556;51.194;3.800;2022-07-17T10:41:01;5.47;;;1.48;;
22778;SDS011;11556;51.194;3.800;2022-07-17T10:43:27;4.80;;;1.27;;
22778;SDS011;11556;51.194;3.800;2022-07-17T10:46:08;4.35;;;1.17;;
22778;SDS011;11556;51.194;3.800;2022-07-17T10:48:34;4.20;;;1.30;;
22778;SDS011;11556;51.194;3.800;2022-07-17T10:51:00;3.08;;;1.42;;
22778;SDS011;11556;51.194;3.800;2022-07-17T10:53:33;4.22;;;1.42;;
22778;SDS011;11556;51.194;3.800;2022-07-17T10:56:01;7.15;;;1.63;;
22778;SDS011;11556;51.194;3.800;2022-07-17T10:58:29;4.65;;;1.48;;
22778;SDS011;11556;51.194;3.800;2022-07-17T11:06:09;3.67;;;1.42;;
22778;SDS011;11556;51.194;3.800;2022-07-17T11:11:21;5.93;;;1.45;;
22778;SDS011;11556;51.194;3.800;2022-07-17T11:13:48;5.82;;;2.00;;
22778;SDS011;11556;51.194;3.800;2022-07-17T11:16:24;2.85;;;1.85;;
22778;SDS011;11556;51.194;3.800;2022-07-17T11:18:51;4.50;;;1.80;;
22778;SDS011;11556;51.194;3.800;2022-07-17T11:21:16;3.55;;;1.95;;
22778;SDS011;11556;51.194;3.800;2022-07-17T11:23:53;5.35;;;2.05;;
22778;SDS011;11556;51.194;3.800;2022-07-17T11:26:20;5.18;;;2.17;;
22778;SDS011;11556;51.194;3.800;2022-07-17T11:28:47;5.30;;;3.10;;
22778;SDS011;11556;51.194;3.800;2022-07-17T11:31:16;3.70;;;2.75;;
22778;SDS011;11556;51.194;3.800;2022-07-17T11:36:42;3.50;;;2.88;;
22778;SDS011;11556;51.194;3.800;2022-07-17T11:39:10;4.78;;;2.85;;
22778;SDS011;11556;51.194;3.800;2022-07-17T11:41:42;4.07;;;3.25;;
22778;SDS011;11556;51.194;3.800;2022-07-17T11:44:08;4.32;;;2.40;;
22778;SDS011;11556;51.194;3.800;2022-07-17T11:46:36;3.58;;;2.70;;
22778;SDS011;11556;51.194;3.800;2022-07-17T11:49:02;3.63;;;2.83;;
22778;SDS011;11556;51.194;3.800;2022-07-17T11:51:42;3.20;;;2.22;;
22778;SDS011;11556;51.194;3.800;2022-07-17T11:54:13;6.07;;;2.30;;
22778;SDS011;11556;51.194;3.800;2022-07-17T11:56:40;4.90;;;2.37;;
22778;SDS011;11556;51.194;3.800;2022-07-17T11:59:07;4.85;;;2.20;;
22778;SDS011;11556;51.194;3.800;2022-07-17T12:01:37;4.00;;;2.45;;
22778;SDS011;11556;51.194;3.800;2022-07-17T12:06:32;6.28;;;3.00;;
22778;SDS011;11556;51.194;3.800;2022-07-17T12:08:57;3.38;;;2.58;;
22778;SDS011;11556;51.194;3.800;2022-07-17T12:11:23;4.60;;;3.05;;
22778;SDS011;11556;51.194;3.800;2022-07-17T12:13:49;3.80;;;2.85;;
22778;SDS011;11556;51.194;3.800;2022-07-17T12:16:19;5.32;;;2.92;;
22778;SDS011;11556;51.194;3.800;2022-07-17T12:21:58;7.80;;;2.83;;
22778;SDS011;11556;51.194;3.800;2022-07-17T12:24:25;3.33;;;2.42;;
22778;SDS011;11556;51.194;3.800;2022-07-17T12:27:00;5.57;;;2.58;;
22778;SDS011;11556;51.194;3.800;2022-07-17T12:29:27;6.22;;;2.88;;
22778;SDS011;11556;51.194;3.800;2022-07-17T12:32:26;7.82;;;2.72;;
22778;SDS011;11556;51.194;3.800;2022-07-17T12:34:47;4.70;;;2.83;;
22778;SDS011;11556;51.194;3.800;2022-07-17T12:37:22;5.70;;;2.75;;
22778;SDS011;11556;51.194;3.800;2022-07-17T12:39:48;9.30;;;2.70;;
22778;SDS011;11556;51.194;3.800;2022-07-17T12:42:14;5.10;;;2.63;;
22778;SDS011;11556;51.194;3.800;2022-07-17T12:44:41;3.97;;;2.67;;
22778;SDS011;11556;51.194;3.800;2022-07-17T12:47:08;5.35;;;2.90;;
22778;SDS011;11556;51.194;3.800;2022-07-17T12:49:34;4.43;;;2.67;;
22778;SDS011;11556;51.194;3.800;2022-07-17T12:51:59;5.80;;;2.50;;
22778;SDS011;11556;51.194;3.800;2022-07-17T12:54:25;3.35;;;2.70;;
22778;SDS011;11556;51.194;3.800;2022-07-17T12:56:51;4.05;;;2.80;;
22778;SDS011;11556;51.194;3.800;2022-07-17T12:59:17;4.65;;;3.13;;
22778;SDS011;11556;51.194;3.800;2022-07-17T13:01:42;4.68;;;3.05;;
22778;SDS011;11556;51.194;3.800;2022-07-17T13:04:10;5.47;;;3.22;;
22778;SDS011;11556;51.194;3.800;2022-07-17T13:06:36;3.13;;;2.83;;
22778;SDS011;11556;51.194;3.800;2022-07-17T13:09:02;3.40;;;2.72;;
22778;SDS011;11556;51.194;3.800;2022-07-17T13:11:28;4.40;;;3.08;;
22778;SDS011;11556;51.194;3.800;2022-07-17T13:13:53;3.15;;;2.85;;
22778;SDS011;11556;51.194;3.800;2022-07-17T13:16:19;4.55;;;3.33;;
22778;SDS011;11556;51.194;3.800;2022-07-17T13:18:45;3.30;;;3.00;;
22778;SDS011;11556;51.194;3.800;2022-07-17T13:21:11;4.43;;;3.00;;
22778;SDS011;11556;51.194;3.800;2022-07-17T13:23:37;4.43;;;2.85;;
22778;SDS011;11556;51.194;3.800;2022-07-17T13:26:02;3.72;;;2.88;;
22778;SDS011;11556;51.194;3.800;2022-07-17T13:28:28;4.28;;;3.05;;
22778;SDS011;11556;51.194;3.800;2022-07-17T13:30:55;7.22;;;2.83;;
22778;SDS011;11556;51.194;3.800;2022-07-17T13:33:21;5.00;;;2.88;;
22778;SDS011;11556;51.194;3.800;2022-07-17T13:35:47;5.70;;;2.90;;
22778;SDS011;11556;51.194;3.800;2022-07-17T13:38:13;6.97;;;2.70;;
22778;SDS011;11556;51.194;3.800;2022-07-17T13:40:39;5.10;;;3.08;;
22778;SDS011;11556;51.194;3.800;2022-07-17T13:43:05;4.32;;;3.10;;
22778;SDS011;11556;51.194;3.800;2022-07-17T13:45:32;5.38;;;3.00;;
22778;SDS011;11556;51.194;3.800;2022-07-17T13:47:58;5.47;;;3.20;;
22778;SDS011;11556;51.194;3.800;2022-07-17T13:50:24;4.55;;;2.78;;
22778;SDS011;11556;51.194;3.800;2022-07-17T13:52:51;3.75;;;3.20;;
22778;SDS011;11556;51.194;3.800;2022-07-17T13:55:16;4.57;;;2.80;;
22778;SDS011;11556;51.194;3.800;2022-07-17T13:57:42;3.80;;;2.90;;
22778;SDS011;11556;51.194;3.800;2022-07-17T14:00:08;3.42;;;2.88;;
22778;SDS011;11556;51.194;3.800;2022-07-17T14:02:35;4.78;;;2.78;;
22778;SDS011;11556;51.194;3.800;2022-07-17T14:05:02;4.32;;;2.72;;
22778;SDS011;11556;51.194;3.800;2022-07-17T14:07:28;6.40;;;3.30;;
22778;SDS011;11556;51.194;3.800;2022-07-17T14:09:54;4.65;;;2.80;;
22778;SDS011;11556;51.194;3.800;2022-07-17T14:12:19;4.85;;;2.95;;
22778;SDS011;11556;51.194;3.800;2022-07-17T14:14:45;5.88;;;3.20;;
22778;SDS011;11556;51.194;3.800;2022-07-17T14:17:10;4.32;;;3.38;;
22778;SDS011;11556;51.194;3.800;2022-07-17T14:19:36;5.40;;;2.65;;
22778;SDS011;11556;51.194;3.800;2022-07-17T14:22:03;3.35;;;3.03;;
22778;SDS011;11556;51.194;3.800;2022-07-17T14:24:29;5.55;;;3.40;;
22778;SDS011;11556;51.194;3.800;2022-07-17T14:26:54;4.38;;;3.20;;
22778;SDS011;11556;51.194;3.800;2022-07-17T14:29:20;4.53;;;3.10;;
22778;SDS011;11556;51.194;3.800;2022-07-17T14:31:46;4.75;;;3.00;;
22778;SDS011;11556;51.194;3.800;2022-07-17T14:34:12;6.30;;;2.90;;
22778;SDS011;11556;51.194;3.800;2022-07-17T14:36:38;3.85;;;2.63;;
22778;SDS011;11556;51.194;3.800;2022-07-17T14:39:05;3.92;;;2.70;;
22778;SDS011;11556;51.194;3.800;2022-07-17T14:41:31;3.05;;;2.75;;
22778;SDS011;11556;51.194;3.800;2022-07-17T14:43:56;5.97;;;3.58;;
22778;SDS011;11556;51.194;3.800;2022-07-17T14:46:22;6.15;;;3.63;;
22778;SDS011;11556;51.194;3.800;2022-07-17T14:48:49;4.80;;;2.80;;
22778;SDS011;11556;51.194;3.800;2022-07-17T14:51:14;4.30;;;3.45;;
22778;SDS011;11556;51.194;3.800;2022-07-17T14:53:40;5.18;;;3.25;;
22778;SDS011;11556;51.194;3.800;2022-07-17T14:56:06;4.25;;;3.00;;
22778;SDS011;11556;51.194;3.800;2022-07-17T14:58:32;5.75;;;3.55;;
22778;SDS011;11556;51.194;3.800;2022-07-17T15:00:57;5.13;;;3.78;;
22778;SDS011;11556;51.194;3.800;2022-07-17T15:03:23;8.25;;;3.47;;
22778;SDS011;11556;51.194;3.800;2022-07-17T15:05:49;5.82;;;3.67;;
22778;SDS011;11556;51.194;3.800;2022-07-17T15:08:15;4.15;;;3.25;;
22778;SDS011;11556;51.194;3.800;2022-07-17T15:10:40;6.22;;;3.60;;
22778;SDS011;11556;51.194;3.800;2022-07-17T15:13:06;5.30;;;3.40;;
22778;SDS011;11556;51.194;3.800;2022-07-17T15:15:32;5.15;;;3.30;;